sensor_id;sensor_type;location;lat;lon;timestamp;temperature;humidity
3846;DHT22;1938;50.812;7.738;2023-07-31T00:00:29;16.00;1.00
3846;DHT22;1938;50.812;7.738;2023-07-31T00:02:55;16.00;1.00
3846;DHT22;1938;50.812;7.738;2023-07-31T00:05:21;16.00;4.90
3846;DHT22;1938;50.812;7.738;2023-07-31T00:07:47;16.00;90.80
3846;DHT22;1938;50.812;7.738;2023-07-31T00:10:13;16.00;99.90
3846;DHT22;1938;50.812;7.738;2023-07-31T00:12:40;16.00;99.90
3846;DHT22;1938;50.812;7.738;2023-07-31T00:15:07;15.90;99.90
3846;DHT22;1938;50.812;7.738;2023-07-31T00:17:32;16.00;99.90
3846;DHT22;1938;50.812;7.738;2023-07-31T00:19:58;16.00;99.90
3846;DHT22;1938;50.812;7.738;2023-07-31T00:22:25;16.00;31.40
3846;DHT22;1938;50.812;7.738;2023-07-31T00:24:51;16.00;27.00
3846;DHT22;1938;50.812;7.738;2023-07-31T00:27:17;16.10;1.00
3846;DHT22;1938;50.812;7.738;2023-07-31T00:29:42;16.10;34.20
3846;DHT22;1938;50.812;7.738;2023-07-31T00:32:08;16.10;18.30
3846;DHT22;1938;50.812;7.738;2023-07-31T00:34:33;16.10;2.80
3846;DHT22;1938;50.812;7.738;2023-07-31T00:36:59;16.10;1.00
3846;DHT22;1938;50.812;7.738;2023-07-31T00:39:24;16.20;1.00
3846;DHT22;1938;50.812;7.738;2023-07-31T00:41:50;16.10;13.40
3846;DHT22;1938;50.812;7.738;2023-07-31T00:44:16;16.10;1.00
3846;DHT22;1938;50.812;7.738;2023-07-31T00:46:41;16.20;1.00
3846;DHT22;1938;50.812;7.738;2023-07-31T00:49:08;16.20;1.00
3846;DHT22;1938;50.812;7.738;2023-07-31T00:51:34;16.20;1.00
3846;DHT22;1938;50.812;7.738;2023-07-31T00:54:00;16.20;49.70
3846;DHT22;1938;50.812;7.738;2023-07-31T00:56:27;16.20;79.70
3846;DHT22;1938;50.812;7.738;2023-07-31T00:58:55;16.20;1.00
3846;DHT22;1938;50.812;7.738;2023-07-31T01:01:21;16.20;99.90
3846;DHT22;1938;50.812;7.738;2023-07-31T01:03:48;16.20;99.90
3846;DHT22;1938;50.812;7.738;2023-07-31T01:09:26;16.20;62.40
3846;DHT22;1938;50.812;7.738;2023-07-31T01:11:57;16.20;99.90
3846;DHT22;1938;50.812;7.738;2023-07-31T01:14:23;16.30;99.90
3846;DHT22;1938;50.812;7.738;2023-07-31T01:16:48;16.20;99.90
3846;DHT22;1938;50.812;7.738;2023-07-31T01:19:15;16.30;13.70
3846;DHT22;1938;50.812;7.738;2023-07-31T01:22:21;16.30;1.00
3846;DHT22;1938;50.812;7.738;2023-07-31T01:27:50;16.30;1.00
3846;DHT22;1938;50.812;7.738;2023-07-31T01:30:22;16.30;1.00
3846;DHT22;1938;50.812;7.738;2023-07-31T01:32:53;16.30;17.90
3846;DHT22;1938;50.812;7.738;2023-07-31T01:35:19;16.30;1.00
3846;DHT22;1938;50.812;7.738;2023-07-31T01:37:45;16.30;99.90
3846;DHT22;1938;50.812;7.738;2023-07-31T01:40:11;16.30;99.90
3846;DHT22;1938;50.812;7.738;2023-07-31T01:42:36;16.30;1.00
3846;DHT22;1938;50.812;7.738;2023-07-31T01:45:02;16.30;1.00
3846;DHT22;1938;50.812;7.738;2023-07-31T01:47:28;16.30;99.90
3846;DHT22;1938;50.812;7.738;2023-07-31T01:49:53;16.40;1.00
3846;DHT22;1938;50.812;7.738;2023-07-31T01:52:19;16.30;1.00
3846;DHT22;1938;50.812;7.738;2023-07-31T01:54:44;16.30;1.00
3846;DHT22;1938;50.812;7.738;2023-07-31T01:57:10;16.30;1.00
3846;DHT22;1938;50.812;7.738;2023-07-31T01:59:35;16.30;1.00
3846;DHT22;1938;50.812;7.738;2023-07-31T02:02:01;16.30;33.40
3846;DHT22;1938;50.812;7.738;2023-07-31T02:04:26;16.30;15.00
3846;DHT22;1938;50.812;7.738;2023-07-31T02:06:53;16.30;46.30
3846;DHT22;1938;50.812;7.738;2023-07-31T02:09:18;16.30;99.90
3846;DHT22;1938;50.812;7.738;2023-07-31T02:11:45;16.30;99.90
3846;DHT22;1938;50.812;7.738;2023-07-31T02:14:10;16.30;1.00
3846;DHT22;1938;50.812;7.738;2023-07-31T02:16:36;16.40;27.30
3846;DHT22;1938;50.812;7.738;2023-07-31T02:19:01;16.30;99.90
3846;DHT22;1938;50.812;7.738;2023-07-31T02:21:27;16.20;1.00
3846;DHT22;1938;50.812;7.738;2023-07-31T02:23:53;16.20;6.90
3846;DHT22;1938;50.812;7.738;2023-07-31T02:26:19;16.10;38.00
3846;DHT22;1938;50.812;7.738;2023-07-31T02:28:44;16.20;94.70
3846;DHT22;1938;50.812;7.738;2023-07-31T02:31:10;16.00;99.90
3846;DHT22;1938;50.812;7.738;2023-07-31T02:33:35;16.00;99.90
3846;DHT22;1938;50.812;7.738;2023-07-31T02:36:01;16.00;99.90
3846;DHT22;1938;50.812;7.738;2023-07-31T02:38:26;15.90;99.90
3846;DHT22;1938;50.812;7.738;2023-07-31T02:40:53;15.90;99.90
3846;DHT22;1938;50.812;7.738;2023-07-31T02:43:18;15.90;99.90
3846;DHT22;1938;50.812;7.738;2023-07-31T02:45:44;15.90;99.90
3846;DHT22;1938;50.812;7.738;2023-07-31T02:48:09;15.90;99.90
3846;DHT22;1938;50.812;7.738;2023-07-31T02:50:37;15.90;99.90
3846;DHT22;1938;50.812;7.738;2023-07-31T02:53:03;15.90;99.90
3846;DHT22;1938;50.812;7.738;2023-07-31T02:55:29;15.90;99.90
3846;DHT22;1938;50.812;7.738;2023-07-31T02:57:54;15.90;99.90
3846;DHT22;1938;50.812;7.738;2023-07-31T03:00:20;15.90;99.90
3846;DHT22;1938;50.812;7.738;2023-07-31T03:02:45;15.90;99.90
3846;DHT22;1938;50.812;7.738;2023-07-31T03:05:11;15.80;99.90
3846;DHT22;1938;50.812;7.738;2023-07-31T03:07:37;15.80;99.90
3846;DHT22;1938;50.812;7.738;2023-07-31T03:10:02;15.80;99.90
3846;DHT22;1938;50.812;7.738;2023-07-31T03:12:28;15.80;99.90
3846;DHT22;1938;50.812;7.738;2023-07-31T03:14:54;15.80;99.90
3846;DHT22;1938;50.812;7.738;2023-07-31T03:17:19;15.80;99.90
3846;DHT22;1938;50.812;7.738;2023-07-31T03:19:45;15.80;99.90
3846;DHT22;1938;50.812;7.738;2023-07-31T03:22:10;15.80;99.90
3846;DHT22;1938;50.812;7.738;2023-07-31T03:24:36;15.80;99.90
3846;DHT22;1938;50.812;7.738;2023-07-31T03:27:01;15.90;99.90
3846;DHT22;1938;50.812;7.738;2023-07-31T03:29:27;15.90;99.90
3846;DHT22;1938;50.812;7.738;2023-07-31T03:31:52;15.90;99.90
3846;DHT22;1938;50.812;7.738;2023-07-31T03:34:18;15.80;99.90
3846;DHT22;1938;50.812;7.738;2023-07-31T03:36:43;15.90;99.90
3846;DHT22;1938;50.812;7.738;2023-07-31T03:39:10;15.90;99.90
3846;DHT22;1938;50.812;7.738;2023-07-31T03:41:36;15.90;99.90
3846;DHT22;1938;50.812;7.738;2023-07-31T03:44:01;15.90;99.90
3846;DHT22;1938;50.812;7.738;2023-07-31T03:46:27;15.90;99.90
3846;DHT22;1938;50.812;7.738;2023-07-31T03:48:52;15.90;99.90
3846;DHT22;1938;50.812;7.738;2023-07-31T03:51:18;15.90;99.90
3846;DHT22;1938;50.812;7.738;2023-07-31T03:53:44;15.90;99.90
3846;DHT22;1938;50.812;7.738;2023-07-31T03:56:10;15.90;99.90
3846;DHT22;1938;50.812;7.738;2023-07-31T03:58:37;15.90;99.90
3846;DHT22;1938;50.812;7.738;2023-07-31T04:01:03;16.00;99.90
3846;DHT22;1938;50.812;7.738;2023-07-31T04:03:29;16.00;99.90
3846;DHT22;1938;50.812;7.738;2023-07-31T04:05:55;16.00;87.90
3846;DHT22;1938;50.812;7.738;2023-07-31T04:08:22;16.00;85.70
3846;DHT22;1938;50.812;7.738;2023-07-31T04:10:48;16.00;59.70
3846;DHT22;1938;50.812;7.738;2023-07-31T04:13:14;16.00;59.50
3846;DHT22;1938;50.812;7.738;2023-07-31T04:15:40;16.00;31.20
3846;DHT22;1938;50.812;7.738;2023-07-31T04:18:05;16.00;19.30
3846;DHT22;1938;50.812;7.738;2023-07-31T04:20:31;16.00;1.00
3846;DHT22;1938;50.812;7.738;2023-07-31T04:22:56;16.10;1.00
3846;DHT22;1938;50.812;7.738;2023-07-31T04:25:23;16.10;1.00
3846;DHT22;1938;50.812;7.738;2023-07-31T04:27:48;16.10;1.00
3846;DHT22;1938;50.812;7.738;2023-07-31T04:30:14;16.10;1.00
3846;DHT22;1938;50.812;7.738;2023-07-31T04:32:40;16.00;1.00
3846;DHT22;1938;50.812;7.738;2023-07-31T04:35:05;16.10;1.00
3846;DHT22;1938;50.812;7.738;2023-07-31T04:37:31;16.10;99.90
3846;DHT22;1938;50.812;7.738;2023-07-31T04:39:57;16.10;99.90
3846;DHT22;1938;50.812;7.738;2023-07-31T04:42:23;16.10;99.90
3846;DHT22;1938;50.812;7.738;2023-07-31T04:44:49;16.20;99.90
3846;DHT22;1938;50.812;7.738;2023-07-31T04:47:14;16.20;99.90
3846;DHT22;1938;50.812;7.738;2023-07-31T04:49:40;16.20;99.90
3846;DHT22;1938;50.812;7.738;2023-07-31T04:52:06;16.20;99.90
3846;DHT22;1938;50.812;7.738;2023-07-31T04:54:31;16.20;1.00
3846;DHT22;1938;50.812;7.738;2023-07-31T04:56:57;16.30;1.00
3846;DHT22;1938;50.812;7.738;2023-07-31T04:59:22;16.30;1.00
3846;DHT22;1938;50.812;7.738;2023-07-31T05:01:48;16.30;99.90
3846;DHT22;1938;50.812;7.738;2023-07-31T05:04:14;16.30;99.90
3846;DHT22;1938;50.812;7.738;2023-07-31T05:06:40;16.30;99.90
3846;DHT22;1938;50.812;7.738;2023-07-31T05:09:06;16.30;52.90
3846;DHT22;1938;50.812;7.738;2023-07-31T05:11:32;16.30;44.20
3846;DHT22;1938;50.812;7.738;2023-07-31T05:13:58;16.30;1.00
3846;DHT22;1938;50.812;7.738;2023-07-31T05:16:23;16.40;1.00
3846;DHT22;1938;50.812;7.738;2023-07-31T05:18:49;16.40;1.00
3846;DHT22;1938;50.812;7.738;2023-07-31T05:21:15;16.40;99.90
3846;DHT22;1938;50.812;7.738;2023-07-31T05:23:41;16.40;99.90
3846;DHT22;1938;50.812;7.738;2023-07-31T05:26:07;16.40;99.90
3846;DHT22;1938;50.812;7.738;2023-07-31T05:28:35;16.50;99.90
3846;DHT22;1938;50.812;7.738;2023-07-31T05:31:02;16.50;99.90
3846;DHT22;1938;50.812;7.738;2023-07-31T05:33:28;16.50;26.40
3846;DHT22;1938;50.812;7.738;2023-07-31T05:35:53;16.50;1.00
3846;DHT22;1938;50.812;7.738;2023-07-31T05:38:19;16.70;1.00
3846;DHT22;1938;50.812;7.738;2023-07-31T05:40:45;16.60;1.00
3846;DHT22;1938;50.812;7.738;2023-07-31T05:43:10;16.70;1.00
3846;DHT22;1938;50.812;7.738;2023-07-31T05:45:37;16.80;1.00
3846;DHT22;1938;50.812;7.738;2023-07-31T05:48:03;16.90;1.00
3846;DHT22;1938;50.812;7.738;2023-07-31T05:50:30;17.00;1.00
3846;DHT22;1938;50.812;7.738;2023-07-31T05:52:57;17.00;99.90
3846;DHT22;1938;50.812;7.738;2023-07-31T05:55:22;17.20;99.90
3846;DHT22;1938;50.812;7.738;2023-07-31T05:57:48;17.10;99.40
3846;DHT22;1938;50.812;7.738;2023-07-31T06:00:14;17.10;35.60
3846;DHT22;1938;50.812;7.738;2023-07-31T06:02:40;17.20;99.90
3846;DHT22;1938;50.812;7.738;2023-07-31T06:05:06;17.30;99.90
3846;DHT22;1938;50.812;7.738;2023-07-31T06:07:32;17.20;32.70
3846;DHT22;1938;50.812;7.738;2023-07-31T06:09:57;17.20;13.80
3846;DHT22;1938;50.812;7.738;2023-07-31T06:12:29;17.20;23.70
3846;DHT22;1938;50.812;7.738;2023-07-31T06:14:55;17.20;99.90
3846;DHT22;1938;50.812;7.738;2023-07-31T06:17:20;17.20;99.90
3846;DHT22;1938;50.812;7.738;2023-07-31T06:19:46;17.30;99.90
3846;DHT22;1938;50.812;7.738;2023-07-31T06:22:12;17.40;99.90
3846;DHT22;1938;50.812;7.738;2023-07-31T06:24:38;17.40;39.00
3846;DHT22;1938;50.812;7.738;2023-07-31T06:27:03;17.50;21.50
3846;DHT22;1938;50.812;7.738;2023-07-31T06:29:29;17.50;99.90
3846;DHT22;1938;50.812;7.738;2023-07-31T06:31:56;17.60;55.80
3846;DHT22;1938;50.812;7.738;2023-07-31T06:34:21;17.60;77.70
3846;DHT22;1938;50.812;7.738;2023-07-31T06:36:47;17.60;1.00
3846;DHT22;1938;50.812;7.738;2023-07-31T06:39:12;17.60;1.00
3846;DHT22;1938;50.812;7.738;2023-07-31T06:41:38;17.60;1.00
3846;DHT22;1938;50.812;7.738;2023-07-31T06:44:04;17.50;1.00
3846;DHT22;1938;50.812;7.738;2023-07-31T06:46:30;17.60;15.50
3846;DHT22;1938;50.812;7.738;2023-07-31T06:48:55;17.60;61.20
3846;DHT22;1938;50.812;7.738;2023-07-31T06:51:21;17.50;99.90
3846;DHT22;1938;50.812;7.738;2023-07-31T06:53:46;17.50;99.90
3846;DHT22;1938;50.812;7.738;2023-07-31T06:56:12;17.60;99.90
3846;DHT22;1938;50.812;7.738;2023-07-31T06:58:39;17.50;99.90
3846;DHT22;1938;50.812;7.738;2023-07-31T07:01:05;17.50;1.00
3846;DHT22;1938;50.812;7.738;2023-07-31T07:03:30;17.40;10.80
3846;DHT22;1938;50.812;7.738;2023-07-31T07:05:56;17.50;70.20
3846;DHT22;1938;50.812;7.738;2023-07-31T07:08:23;17.40;99.90
3846;DHT22;1938;50.812;7.738;2023-07-31T07:10:49;17.50;99.90
3846;DHT22;1938;50.812;7.738;2023-07-31T07:13:14;17.40;1.00
3846;DHT22;1938;50.812;7.738;2023-07-31T07:15:40;17.50;99.90
3846;DHT22;1938;50.812;7.738;2023-07-31T07:18:05;17.50;82.10
3846;DHT22;1938;50.812;7.738;2023-07-31T07:20:31;17.50;35.60
3846;DHT22;1938;50.812;7.738;2023-07-31T07:22:56;17.60;99.90
3846;DHT22;1938;50.812;7.738;2023-07-31T07:25:22;17.70;99.90
3846;DHT22;1938;50.812;7.738;2023-07-31T07:27:47;17.80;1.00
3846;DHT22;1938;50.812;7.738;2023-07-31T07:30:13;17.90;99.90
3846;DHT22;1938;50.812;7.738;2023-07-31T07:32:40;18.10;99.90
3846;DHT22;1938;50.812;7.738;2023-07-31T07:35:06;18.20;99.90
3846;DHT22;1938;50.812;7.738;2023-07-31T07:37:31;18.40;13.50
3846;DHT22;1938;50.812;7.738;2023-07-31T07:39:57;18.60;1.00
3846;DHT22;1938;50.812;7.738;2023-07-31T07:42:23;18.80;99.90
3846;DHT22;1938;50.812;7.738;2023-07-31T07:44:49;19.00;49.80
3846;DHT22;1938;50.812;7.738;2023-07-31T07:47:15;19.40;1.00
3846;DHT22;1938;50.812;7.738;2023-07-31T07:49:41;19.70;99.90
3846;DHT22;1938;50.812;7.738;2023-07-31T07:52:07;20.00;1.00
3846;DHT22;1938;50.812;7.738;2023-07-31T07:54:32;20.50;1.00
3846;DHT22;1938;50.812;7.738;2023-07-31T07:56:58;20.90;99.90
3846;DHT22;1938;50.812;7.738;2023-07-31T07:59:24;21.40;99.90
3846;DHT22;1938;50.812;7.738;2023-07-31T08:01:50;21.90;1.00
3846;DHT22;1938;50.812;7.738;2023-07-31T08:04:15;22.50;1.00
3846;DHT22;1938;50.812;7.738;2023-07-31T08:06:42;22.70;99.90
3846;DHT22;1938;50.812;7.738;2023-07-31T08:09:07;22.60;99.90
3846;DHT22;1938;50.812;7.738;2023-07-31T08:11:34;22.50;99.90
3846;DHT22;1938;50.812;7.738;2023-07-31T08:13:59;22.30;99.90
3846;DHT22;1938;50.812;7.738;2023-07-31T08:16:25;22.00;99.90
3846;DHT22;1938;50.812;7.738;2023-07-31T08:18:51;21.50;1.00
3846;DHT22;1938;50.812;7.738;2023-07-31T08:21:16;21.20;1.00
3846;DHT22;1938;50.812;7.738;2023-07-31T08:23:43;21.00;37.30
3846;DHT22;1938;50.812;7.738;2023-07-31T08:26:14;20.70;36.20
3846;DHT22;1938;50.812;7.738;2023-07-31T08:28:40;20.50;99.90
3846;DHT22;1938;50.812;7.738;2023-07-31T08:31:06;20.20;99.90
3846;DHT22;1938;50.812;7.738;2023-07-31T08:33:32;20.00;99.90
3846;DHT22;1938;50.812;7.738;2023-07-31T08:35:58;19.80;99.90
3846;DHT22;1938;50.812;7.738;2023-07-31T08:38:25;19.60;1.00
3846;DHT22;1938;50.812;7.738;2023-07-31T08:40:51;19.40;1.00
3846;DHT22;1938;50.812;7.738;2023-07-31T08:43:17;19.40;99.90
3846;DHT22;1938;50.812;7.738;2023-07-31T08:45:44;19.20;99.90
3846;DHT22;1938;50.812;7.738;2023-07-31T08:48:11;19.30;99.90
3846;DHT22;1938;50.812;7.738;2023-07-31T08:50:37;19.00;99.90
3846;DHT22;1938;50.812;7.738;2023-07-31T08:53:03;18.80;99.90
3846;DHT22;1938;50.812;7.738;2023-07-31T08:55:29;18.70;1.00
3846;DHT22;1938;50.812;7.738;2023-07-31T08:57:56;18.60;1.00
3846;DHT22;1938;50.812;7.738;2023-07-31T09:00:23;18.40;99.90
3846;DHT22;1938;50.812;7.738;2023-07-31T09:05:23;18.40;91.90
3846;DHT22;1938;50.812;7.738;2023-07-31T09:07:50;18.40;99.90
3846;DHT22;1938;50.812;7.738;2023-07-31T09:10:16;18.40;1.00
3846;DHT22;1938;50.812;7.738;2023-07-31T09:12:43;18.50;1.00
3846;DHT22;1938;50.812;7.738;2023-07-31T09:15:11;18.70;13.80
3846;DHT22;1938;50.812;7.738;2023-07-31T09:17:37;18.70;1.00
3846;DHT22;1938;50.812;7.738;2023-07-31T09:20:19;18.70;99.90
3846;DHT22;1938;50.812;7.738;2023-07-31T09:22:46;18.80;1.00
3846;DHT22;1938;50.812;7.738;2023-07-31T09:25:18;18.70;1.00
3846;DHT22;1938;50.812;7.738;2023-07-31T09:30:14;18.80;99.90
3846;DHT22;1938;50.812;7.738;2023-07-31T09:32:40;18.80;99.90
3846;DHT22;1938;50.812;7.738;2023-07-31T09:35:27;19.10;99.90
3846;DHT22;1938;50.812;7.738;2023-07-31T09:37:56;19.00;1.00
3846;DHT22;1938;50.812;7.738;2023-07-31T09:40:43;19.10;1.00
3846;DHT22;1938;50.812;7.738;2023-07-31T09:43:16;19.20;3.80
3846;DHT22;1938;50.812;7.738;2023-07-31T09:45:43;19.30;1.00
3846;DHT22;1938;50.812;7.738;2023-07-31T09:48:12;19.20;1.00
3846;DHT22;1938;50.812;7.738;2023-07-31T09:50:39;19.40;99.90
3846;DHT22;1938;50.812;7.738;2023-07-31T09:53:06;19.50;99.90
3846;DHT22;1938;50.812;7.738;2023-07-31T09:55:32;19.60;99.90
3846;DHT22;1938;50.812;7.738;2023-07-31T09:57:58;19.60;99.90
3846;DHT22;1938;50.812;7.738;2023-07-31T10:00:24;19.60;99.90
3846;DHT22;1938;50.812;7.738;2023-07-31T10:02:53;19.50;99.90
3846;DHT22;1938;50.812;7.738;2023-07-31T10:05:19;19.50;99.90
3846;DHT22;1938;50.812;7.738;2023-07-31T10:07:54;19.50;99.90
3846;DHT22;1938;50.812;7.738;2023-07-31T10:10:21;19.70;99.90
3846;DHT22;1938;50.812;7.738;2023-07-31T10:12:48;19.50;90.60
3846;DHT22;1938;50.812;7.738;2023-07-31T10:15:15;19.50;99.90
3846;DHT22;1938;50.812;7.738;2023-07-31T10:17:41;19.70;99.90
3846;DHT22;1938;50.812;7.738;2023-07-31T10:20:08;19.70;1.00
3846;DHT22;1938;50.812;7.738;2023-07-31T10:22:35;19.60;99.90
3846;DHT22;1938;50.812;7.738;2023-07-31T10:25:02;19.70;1.00
3846;DHT22;1938;50.812;7.738;2023-07-31T10:27:27;19.70;2.90
3846;DHT22;1938;50.812;7.738;2023-07-31T10:29:57;19.60;1.00
3846;DHT22;1938;50.812;7.738;2023-07-31T10:32:25;19.50;45.90
3846;DHT22;1938;50.812;7.738;2023-07-31T10:34:52;19.50;15.50
3846;DHT22;1938;50.812;7.738;2023-07-31T10:40:18;19.40;99.90
3846;DHT22;1938;50.812;7.738;2023-07-31T10:42:49;19.40;99.90
3846;DHT22;1938;50.812;7.738;2023-07-31T10:45:38;19.30;99.90
3846;DHT22;1938;50.812;7.738;2023-07-31T10:48:14;19.30;99.90
3846;DHT22;1938;50.812;7.738;2023-07-31T10:50:52;19.30;99.90
3846;DHT22;1938;50.812;7.738;2023-07-31T10:53:25;19.30;99.90
3846;DHT22;1938;50.812;7.738;2023-07-31T10:55:51;19.30;99.90
3846;DHT22;1938;50.812;7.738;2023-07-31T10:58:19;19.20;1.00
3846;DHT22;1938;50.812;7.738;2023-07-31T11:00:45;19.20;1.00
3846;DHT22;1938;50.812;7.738;2023-07-31T11:03:13;19.30;1.00
3846;DHT22;1938;50.812;7.738;2023-07-31T11:05:49;19.10;99.90
3846;DHT22;1938;50.812;7.738;2023-07-31T11:08:22;19.30;99.90
3846;DHT22;1938;50.812;7.738;2023-07-31T11:10:50;19.30;99.90
3846;DHT22;1938;50.812;7.738;2023-07-31T11:13:16;19.30;99.90
3846;DHT22;1938;50.812;7.738;2023-07-31T11:15:43;19.40;99.90
3846;DHT22;1938;50.812;7.738;2023-07-31T11:18:08;19.30;99.90
3846;DHT22;1938;50.812;7.738;2023-07-31T11:20:37;19.30;99.90
3846;DHT22;1938;50.812;7.738;2023-07-31T11:23:05;19.30;99.90
3846;DHT22;1938;50.812;7.738;2023-07-31T11:25:32;19.40;99.90
3846;DHT22;1938;50.812;7.738;2023-07-31T11:28:04;19.40;99.90
3846;DHT22;1938;50.812;7.738;2023-07-31T11:30:30;19.50;99.90
3846;DHT22;1938;50.812;7.738;2023-07-31T11:32:55;19.60;99.90
3846;DHT22;1938;50.812;7.738;2023-07-31T11:35:21;19.60;1.40
3846;DHT22;1938;50.812;7.738;2023-07-31T11:37:47;19.70;13.70
3846;DHT22;1938;50.812;7.738;2023-07-31T11:40:14;19.60;18.80
3846;DHT22;1938;50.812;7.738;2023-07-31T11:42:40;19.50;1.00
3846;DHT22;1938;50.812;7.738;2023-07-31T11:45:08;19.50;1.00
3846;DHT22;1938;50.812;7.738;2023-07-31T11:47:35;19.60;10.80
3846;DHT22;1938;50.812;7.738;2023-07-31T11:50:09;19.70;1.00
3846;DHT22;1938;50.812;7.738;2023-07-31T11:52:40;19.70;1.00
3846;DHT22;1938;50.812;7.738;2023-07-31T11:55:08;19.70;1.00
3846;DHT22;1938;50.812;7.738;2023-07-31T11:57:36;19.80;1.00
3846;DHT22;1938;50.812;7.738;2023-07-31T12:00:03;19.80;1.00
3846;DHT22;1938;50.812;7.738;2023-07-31T12:02:29;19.90;4.20
3846;DHT22;1938;50.812;7.738;2023-07-31T12:04:54;20.10;99.90
3846;DHT22;1938;50.812;7.738;2023-07-31T12:07:20;20.20;1.00
3846;DHT22;1938;50.812;7.738;2023-07-31T12:09:55;20.40;1.00
3846;DHT22;1938;50.812;7.738;2023-07-31T12:12:23;20.60;99.90
3846;DHT22;1938;50.812;7.738;2023-07-31T12:14:49;20.80;99.90
3846;DHT22;1938;50.812;7.738;2023-07-31T12:17:19;20.80;86.40
3846;DHT22;1938;50.812;7.738;2023-07-31T12:19:45;20.90;99.90
3846;DHT22;1938;50.812;7.738;2023-07-31T12:22:15;20.90;99.90
3846;DHT22;1938;50.812;7.738;2023-07-31T12:24:42;20.90;99.90
3846;DHT22;1938;50.812;7.738;2023-07-31T12:27:12;20.80;99.90
3846;DHT22;1938;50.812;7.738;2023-07-31T12:29:39;20.60;99.90
3846;DHT22;1938;50.812;7.738;2023-07-31T12:32:24;20.70;1.00
3846;DHT22;1938;50.812;7.738;2023-07-31T12:34:51;20.90;57.90
3846;DHT22;1938;50.812;7.738;2023-07-31T12:37:17;20.90;18.50
3846;DHT22;1938;50.812;7.738;2023-07-31T12:39:43;20.80;99.90
3846;DHT22;1938;50.812;7.738;2023-07-31T12:42:08;20.50;1.00
3846;DHT22;1938;50.812;7.738;2023-07-31T12:44:34;20.30;1.00
3846;DHT22;1938;50.812;7.738;2023-07-31T12:46:59;20.30;1.00
3846;DHT22;1938;50.812;7.738;2023-07-31T12:49:25;20.20;50.40
3846;DHT22;1938;50.812;7.738;2023-07-31T12:51:50;20.30;1.00
3846;DHT22;1938;50.812;7.738;2023-07-31T12:54:16;20.90;99.90
3846;DHT22;1938;50.812;7.738;2023-07-31T12:56:42;21.30;55.30
3846;DHT22;1938;50.812;7.738;2023-07-31T12:59:08;21.60;2.50
3846;DHT22;1938;50.812;7.738;2023-07-31T13:01:34;21.80;1.00
3846;DHT22;1938;50.812;7.738;2023-07-31T13:04:01;21.90;99.90
3846;DHT22;1938;50.812;7.738;2023-07-31T13:06:26;22.10;99.90
3846;DHT22;1938;50.812;7.738;2023-07-31T13:08:52;22.40;99.90
3846;DHT22;1938;50.812;7.738;2023-07-31T13:11:18;22.50;54.70
3846;DHT22;1938;50.812;7.738;2023-07-31T13:13:44;22.50;36.40
3846;DHT22;1938;50.812;7.738;2023-07-31T13:16:09;22.50;1.00
3846;DHT22;1938;50.812;7.738;2023-07-31T13:18:35;22.30;3.20
3846;DHT22;1938;50.812;7.738;2023-07-31T13:21:00;22.20;1.00
3846;DHT22;1938;50.812;7.738;2023-07-31T13:23:26;21.90;29.70
3846;DHT22;1938;50.812;7.738;2023-07-31T13:25:51;21.60;53.10
3846;DHT22;1938;50.812;7.738;2023-07-31T13:28:17;21.40;47.70
3846;DHT22;1938;50.812;7.738;2023-07-31T13:30:42;21.20;99.90
3846;DHT22;1938;50.812;7.738;2023-07-31T13:33:08;21.00;99.90
3846;DHT22;1938;50.812;7.738;2023-07-31T13:35:33;20.90;99.90
3846;DHT22;1938;50.812;7.738;2023-07-31T13:37:59;20.70;99.90
3846;DHT22;1938;50.812;7.738;2023-07-31T13:40:25;20.60;99.90
3846;DHT22;1938;50.812;7.738;2023-07-31T13:42:50;20.50;1.00
3846;DHT22;1938;50.812;7.738;2023-07-31T13:45:16;20.40;1.00
3846;DHT22;1938;50.812;7.738;2023-07-31T13:47:41;20.30;1.00
3846;DHT22;1938;50.812;7.738;2023-07-31T13:50:07;20.20;87.30
3846;DHT22;1938;50.812;7.738;2023-07-31T13:52:33;20.20;45.60
3846;DHT22;1938;50.812;7.738;2023-07-31T13:54:58;20.20;99.90
3846;DHT22;1938;50.812;7.738;2023-07-31T13:57:24;20.30;96.70
3846;DHT22;1938;50.812;7.738;2023-07-31T13:59:50;20.30;5.90
3846;DHT22;1938;50.812;7.738;2023-07-31T14:02:16;20.40;26.20
3846;DHT22;1938;50.812;7.738;2023-07-31T14:04:41;20.50;1.00
3846;DHT22;1938;50.812;7.738;2023-07-31T14:07:07;20.70;1.00
3846;DHT22;1938;50.812;7.738;2023-07-31T14:09:32;20.90;99.90
3846;DHT22;1938;50.812;7.738;2023-07-31T14:11:58;21.10;99.90
3846;DHT22;1938;50.812;7.738;2023-07-31T14:14:23;21.40;99.90
3846;DHT22;1938;50.812;7.738;2023-07-31T14:16:50;21.60;99.90
3846;DHT22;1938;50.812;7.738;2023-07-31T14:19:15;21.80;99.90
3846;DHT22;1938;50.812;7.738;2023-07-31T14:21:41;21.90;54.20
3846;DHT22;1938;50.812;7.738;2023-07-31T14:24:07;22.10;36.60
3846;DHT22;1938;50.812;7.738;2023-07-31T14:26:32;22.20;25.60
3846;DHT22;1938;50.812;7.738;2023-07-31T14:28:58;22.20;1.00
3846;DHT22;1938;50.812;7.738;2023-07-31T14:31:23;22.30;1.00
3846;DHT22;1938;50.812;7.738;2023-07-31T14:33:50;22.20;1.00
3846;DHT22;1938;50.812;7.738;2023-07-31T14:36:15;22.10;1.00
3846;DHT22;1938;50.812;7.738;2023-07-31T14:38:41;22.10;1.00
3846;DHT22;1938;50.812;7.738;2023-07-31T14:41:07;21.90;99.90
3846;DHT22;1938;50.812;7.738;2023-07-31T14:43:33;21.70;99.90
3846;DHT22;1938;50.812;7.738;2023-07-31T14:45:58;21.40;99.90
3846;DHT22;1938;50.812;7.738;2023-07-31T14:48:26;21.30;99.90
3846;DHT22;1938;50.812;7.738;2023-07-31T14:50:52;21.10;99.90
3846;DHT22;1938;50.812;7.738;2023-07-31T14:53:18;21.00;99.90
3846;DHT22;1938;50.812;7.738;2023-07-31T14:55:44;21.00;99.90
3846;DHT22;1938;50.812;7.738;2023-07-31T14:58:09;20.90;99.90
3846;DHT22;1938;50.812;7.738;2023-07-31T15:00:37;20.60;99.90
3846;DHT22;1938;50.812;7.738;2023-07-31T15:03:03;20.50;99.90
3846;DHT22;1938;50.812;7.738;2023-07-31T15:05:28;20.40;1.00
3846;DHT22;1938;50.812;7.738;2023-07-31T15:07:54;20.40;1.00
3846;DHT22;1938;50.812;7.738;2023-07-31T15:10:19;20.40;1.00
3846;DHT22;1938;50.812;7.738;2023-07-31T15:12:45;20.30;99.90
3846;DHT22;1938;50.812;7.738;2023-07-31T15:15:12;20.20;1.00
3846;DHT22;1938;50.812;7.738;2023-07-31T15:17:37;20.20;99.90
3846;DHT22;1938;50.812;7.738;2023-07-31T15:20:03;20.00;1.00
3846;DHT22;1938;50.812;7.738;2023-07-31T15:22:29;19.90;1.00
3846;DHT22;1938;50.812;7.738;2023-07-31T15:24:56;19.90;1.00
3846;DHT22;1938;50.812;7.738;2023-07-31T15:27:21;19.80;1.00
3846;DHT22;1938;50.812;7.738;2023-07-31T15:29:47;19.70;1.00
3846;DHT22;1938;50.812;7.738;2023-07-31T15:32:15;19.70;1.00
3846;DHT22;1938;50.812;7.738;2023-07-31T15:34:41;19.70;11.90
3846;DHT22;1938;50.812;7.738;2023-07-31T15:37:06;19.40;8.60
3846;DHT22;1938;50.812;7.738;2023-07-31T15:39:32;19.60;36.50
3846;DHT22;1938;50.812;7.738;2023-07-31T15:41:57;19.50;97.60
3846;DHT22;1938;50.812;7.738;2023-07-31T15:44:23;19.50;85.90
3846;DHT22;1938;50.812;7.738;2023-07-31T15:46:49;19.50;99.40
3846;DHT22;1938;50.812;7.738;2023-07-31T15:49:14;19.60;93.60
3846;DHT22;1938;50.812;7.738;2023-07-31T15:51:40;19.50;99.90
3846;DHT22;1938;50.812;7.738;2023-07-31T15:54:05;19.50;95.50
3846;DHT22;1938;50.812;7.738;2023-07-31T15:56:31;19.60;99.90
3846;DHT22;1938;50.812;7.738;2023-07-31T15:58:56;19.60;99.90
3846;DHT22;1938;50.812;7.738;2023-07-31T16:01:25;19.70;99.90
3846;DHT22;1938;50.812;7.738;2023-07-31T16:03:50;19.70;99.90
3846;DHT22;1938;50.812;7.738;2023-07-31T16:06:18;19.70;99.90
3846;DHT22;1938;50.812;7.738;2023-07-31T16:08:43;19.70;99.90
3846;DHT22;1938;50.812;7.738;2023-07-31T16:11:09;19.60;99.90
3846;DHT22;1938;50.812;7.738;2023-07-31T16:13:36;19.60;99.90
3846;DHT22;1938;50.812;7.738;2023-07-31T16:16:02;19.70;55.00